Latest Weather Observations for Point Wilson

IDV60801

Issued at 11:32 pm EST Monday 26 June 2017 (issued every 30 minutes, with the page automatically refreshed every 10 minutes)

About weather observations | Map of weather stations | Latest weather observations for VIC | Other Formats
Station Details ID: 087166 Name: POINT WILSON Lat: -38.10 Lon: 144.54 Height: 18.0 m
Data from the previous 72 hours. | See also: Recent months for locations in Victoria
Date/Time
EST
Temp
°C
App
Temp
°C
Dew
Point
°C
Rel
Hum
%
Delta-T
°C
Wind Press
QNH
hPa
Press
MSL
hPa
Rain since
9am
mm
Dir  Spd
km/h
Gust
km/h
Spd
kts
Gust
kts
26/11:30pm - - - - - WNW 9 11 5 6 - - -
26/11:00pm - - - - - WNW 9 11 5 6 - - -
26/10:30pm - - - - - NW 9 13 5 7 - - -
26/10:00pm - - - - - NW 11 15 6 8 - - -
26/09:30pm - - - - - NW 11 13 6 7 - - -
26/09:00pm - - - - - NW 11 13 6 7 - - -
26/08:30pm - - - - - WNW 7 9 4 5 - - -
26/08:00pm - - - - - CALM 0 0 0 0 - - -
26/07:30pm - - - - - CALM 0 0 0 0 - - -
26/07:00pm - - - - - CALM 0 0 0 0 - - -
26/06:30pm - - - - - CALM 0 0 0 0 - - -
26/06:00pm - - - - - SSW 6 9 3 5 - - -
26/05:30pm - - - - - SSW 7 13 4 7 - - -
26/05:00pm - - - - - SW 2 6 1 3 - - -
26/04:30pm - - - - - SW 7 9 4 5 - - -
26/04:00pm - - - - - SW 9 11 5 6 - - -
26/03:30pm - - - - - WSW 9 9 5 5 - - -
26/03:00pm - - - - - W 9 11 5 6 - - -
26/02:30pm - - - - - W 9 13 5 7 - - -
26/02:00pm - - - - - W 15 17 8 9 - - -
26/01:30pm - - - - - W 19 20 10 11 - - -
26/01:00pm - - - - - W 17 20 9 11 - - -
26/12:30pm - - - - - W 19 22 10 12 - - -
26/12:00pm - - - - - W 20 24 11 13 - - -
26/11:30am - - - - - W 22 24 12 13 - - -
26/11:00am - - - - - W 24 26 13 14 - - -
26/10:30am - - - - - W 22 26 12 14 - - -
26/10:00am - - - - - W 24 28 13 15 - - -
26/09:30am - - - - - W 24 30 13 16 - - -
26/09:00am - - - - - W 28 32 15 17 - - -
26/08:30am - - - - - W 30 37 16 20 - - -
26/08:00am - - - - - WNW 20 26 11 14 - - -
26/07:30am - - - - - W 20 28 11 15 - - -
26/07:00am - - - - - W 26 30 14 16 - - -
26/06:30am - - - - - W 22 28 12 15 - - -
26/06:00am - - - - - W 24 30 13 16 - - -
26/05:30am - - - - - WNW 20 24 11 13 - - -
26/05:00am - - - - - WNW 22 26 12 14 - - -
26/04:30am - - - - - WNW 20 24 11 13 - - -
26/04:00am - - - - - W 22 28 12 15 - - -
26/03:30am - - - - - W 19 22 10 12 - - -
26/03:00am - - - - - WSW 19 24 10 13 - - -
26/02:30am - - - - - W 20 24 11 13 - - -
26/02:00am - - - - - WNW 19 24 10 13 - - -
26/01:30am - - - - - WNW 17 19 9 10 - - -
26/01:00am - - - - - WNW 17 20 9 11 - - -
26/12:30am - - - - - WNW 15 19 8 10 - - -
26/12:00am - - - - - NW 17 19 9 10 - - -
 
Date/Time
EST
Temp
°C
App
Temp
°C
Dew
Point
°C
Rel
Hum
%
Delta-T
°C
Wind Press
QNH
hPa
Press
MSL
hPa
Rain since
9am
mm
Dir  Spd
km/h
Gust
km/h
Spd
kts
Gust
kts
25/11:30pm - - - - - WNW 17 19 9 10 - - -
25/11:00pm - - - - - WNW 17 20 9 11 - - -
25/10:30pm - - - - - NW 19 20 10 11 - - -
25/10:00pm - - - - - WNW 19 22 10 12 - - -
25/09:30pm - - - - - WNW 20 24 11 13 - - -
25/09:00pm - - - - - WNW 26 30 14 16 - - -
25/08:30pm - - - - - NW 24 30 13 16 - - -
25/08:00pm - - - - - WNW 26 32 14 17 - - -
25/07:30pm - - - - - WNW 30 35 16 19 - - -
25/07:00pm - - - - - WNW 24 32 13 17 - - -
25/06:30pm - - - - - W 28 33 15 18 - - -
25/06:00pm - - - - - W 35 44 19 24 - - -
25/05:30pm - - - - - WNW 24 30 13 16 - - -
25/05:00pm - - - - - WNW 28 35 15 19 - - -
25/04:30pm - - - - - WNW 28 37 15 20 - - -
25/04:00pm - - - - - WNW 33 44 18 24 - - -
25/03:30pm - - - - - WNW 32 39 17 21 - - -
25/03:00pm - - - - - NW 33 41 18 22 - - -
25/02:30pm - - - - - WNW 41 48 22 26 - - -
25/02:00pm - - - - - WNW 37 48 20 26 - - -
25/01:30pm - - - - - WNW 35 44 19 24 - - -
25/01:00pm - - - - - WNW 41 50 22 27 - - -
25/12:30pm - - - - - WNW 39 46 21 25 - - -
25/12:17pm - - - - - WNW 32 50 17 27 - - -
25/12:00pm - - - - - NW 35 48 19 26 - - -
25/11:30am - - - - - NW 35 43 19 23 - - -
25/11:00am - - - - - NW 26 33 14 18 - - -
25/10:30am - - - - - N 22 28 12 15 - - -
25/10:00am - - - - - N 32 35 17 19 - - -
25/09:30am - - - - - NNE 28 33 15 18 - - -
25/09:00am - - - - - N 28 32 15 17 - - -
25/08:30am - - - - - NNW 28 32 15 17 - - -
25/08:00am - - - - - NNW 28 30 15 16 - - -
25/07:30am - - - - - NNW 26 32 14 17 - - -
25/07:00am - - - - - NW 24 30 13 16 - - -
25/06:30am - - - - - NNW 19 24 10 13 - - -
25/06:00am - - - - - N 20 24 11 13 - - -
25/05:30am - - - - - NNW 22 28 12 15 - - -
25/05:00am - - - - - NW 20 26 11 14 - - -
25/04:30am - - - - - NW 22 24 12 13 - - -
25/04:00am - - - - - NW 22 26 12 14 - - -
25/03:30am - - - - - NW 20 24 11 13 - - -
25/03:00am - - - - - NW 20 24 11 13 - - -
25/02:30am - - - - - WNW 15 19 8 10 - - -
25/02:00am - - - - - NW 20 24 11 13 - - -
25/01:30am - - - - - NW 22 28 12 15 - - -
25/01:00am - - - - - NNW 22 26 12 14 - - -
25/12:30am - - - - - NNW 20 26 11 14 - - -
25/12:00am - - - - - NNW 22 24 12 13 - - -
 
Date/Time
EST
Temp
°C
App
Temp
°C
Dew
Point
°C
Rel
Hum
%
Delta-T
°C
Wind Press
QNH
hPa
Press
MSL
hPa
Rain since
9am
mm
Dir  Spd
km/h
Gust
km/h
Spd
kts
Gust
kts
24/11:30pm - - - - - NNW 20 24 11 13 - - -
24/11:00pm - - - - - N 19 22 10 12 - - -
24/10:30pm - - - - - NNW 24 30 13 16 - - -
24/10:00pm - - - - - NNW 19 20 10 11 - - -
24/09:30pm - - - - - NNW 15 17 8 9 - - -
24/09:00pm - - - - - NNW 15 19 8 10 - - -
24/08:30pm - - - - - NNW 13 15 7 8 - - -
24/08:00pm - - - - - NW 13 15 7 8 - - -
24/07:30pm - - - - - NW 13 15 7 8 - - -
24/07:00pm - - - - - WNW 13 15 7 8 - - -
24/06:30pm - - - - - WNW 19 20 10 11 - - -
24/06:00pm - - - - - WNW 15 19 8 10 - - -
24/05:30pm - - - - - WNW 22 28 12 15 - - -
24/05:00pm - - - - - WNW 20 24 11 13 - - -
24/04:30pm - - - - - WNW 24 28 13 15 - - -
24/04:00pm - - - - - W 24 28 13 15 - - -
24/03:30pm - - - - - W 26 32 14 17 - - -
24/03:00pm - - - - - W 22 28 12 15 - - -
24/02:30pm - - - - - WSW 22 28 12 15 - - -
24/02:00pm - - - - - W 20 24 11 13 - - -
24/01:30pm - - - - - W 24 28 13 15 - - -
24/01:00pm - - - - - WSW 20 26 11 14 - - -
24/12:30pm - - - - - WSW 22 28 12 15 - - -
24/12:00pm - - - - - W 22 26 12 14 - - -
24/11:30am - - - - - WSW 20 24 11 13 - - -
24/11:00am - - - - - W 24 28 13 15 - - -
24/10:30am - - - - - WSW 20 24 11 13 - - -
24/10:00am - - - - - W 19 24 10 13 - - -
24/09:30am - - - - - WNW 20 24 11 13 - - -
24/09:00am - - - - - WNW 20 24 11 13 - - -
24/08:30am - - - - - WNW 17 20 9 11 - - -
24/08:00am - - - - - WNW 17 22 9 12 - - -
24/07:30am - - - - - WNW 24 30 13 16 - - -
24/07:00am - - - - - WNW 19 26 10 14 - - -
24/06:30am - - - - - WNW 24 32 13 17 - - -
24/06:00am - - - - - WNW 22 26 12 14 - - -
24/05:30am - - - - - WNW 22 28 12 15 - - -
24/05:00am - - - - - W 26 32 14 17 - - -
24/04:30am - - - - - W 24 28 13 15 - - -
24/04:00am - - - - - W 22 28 12 15 - - -
24/03:30am - - - - - WNW 20 22 11 12 - - -
24/03:00am - - - - - W 20 24 11 13 - - -
24/02:30am - - - - - WSW 20 28 11 15 - - -
24/02:00am - - - - - SW 24 30 13 16 - - -
24/01:30am - - - - - SW 26 32 14 17 - - -
24/01:00am - - - - - SSW 26 33 14 18 - - -
24/12:30am - - - - - SW 33 43 18 23 - - -
24/12:00am - - - - - W 26 30 14 16 - - -

Other Formats:

Comma delimited format used in spreadsheet applications
http://www.bom.gov.au/fwo/IDV60801/IDV60801.94847.axf

JavaScript Object Notation format (JSON) in row-major order
http://www.bom.gov.au/fwo/IDV60801/IDV60801.94847.json